Time;durP1;ratioP1;P1;durP2;ratioP2;P2;SDS_P1;SDS_P2;PMS_P1;PMS_P2;Temp;Humidity;BMP_temperature;BMP_pressure;BME280_temperature;BME280_humidity;BME280_pressure;Samples;Min_cycle;Max_cycle;Signal;HPM_P1;HPM_P2
2023/08/25 00:04:43;;;;;;;1999.90;999.90;;;;;;;20.06;100.00;100897.09;10627721;27;20051;-69
2023/08/25 00:09:45;;;;;;;1999.90;999.90;;;;;;;19.95;100.00;100887.50;10591574;27;20051;-69
2023/08/25 00:14:48;;;;;;;1999.90;999.90;;;;;;;19.96;100.00;100890.00;10626380;27;20058;-69
2023/08/25 00:19:51;;;;;;;1999.90;999.90;;;;;;;20.09;100.00;100894.13;10626363;27;20049;-69
2023/08/25 00:24:55;;;;;;;1999.90;999.90;;;;;;;19.90;100.00;100909.19;10626794;27;20047;-68
2023/08/25 00:29:58;;;;;;;1999.90;999.90;;;;;;;20.08;100.00;100917.22;10626478;27;20047;-68
2023/08/25 00:35:00;;;;;;;1999.90;999.90;;;;;;;20.08;100.00;100914.56;10626378;27;20047;-68
2023/08/25 00:40:03;;;;;;;1999.90;999.90;;;;;;;20.03;100.00;100912.34;10625814;27;20130;-68
2023/08/25 00:45:05;;;;;;;1999.90;999.90;;;;;;;20.04;100.00;100913.19;10607868;27;20047;-68
2023/08/25 00:50:09;;;;;;;1999.90;999.90;;;;;;;20.12;100.00;100901.81;10625886;27;20061;-68
2023/08/25 00:55:12;;;;;;;1999.90;999.90;;;;;;;20.02;100.00;100900.06;10607613;27;20058;-68
2023/08/25 01:00:14;;;;;;;1999.90;999.90;;;;;;;19.89;100.00;100904.00;10625056;27;20039;-68
2023/08/25 01:05:17;;;;;;;1999.90;999.90;;;;;;;19.85;100.00;100909.63;10625358;27;20053;-68
2023/08/25 01:10:24;;;;;;;1999.90;999.90;;;;;;;19.63;100.00;100909.94;10625094;27;20125;-68
2023/08/25 01:15:31;;;;;;;1999.90;999.90;;;;;;;19.65;100.00;100902.66;10624488;27;20051;-68
2023/08/25 01:20:33;;;;;;;1999.90;999.90;;;;;;;19.56;100.00;100896.41;10606847;27;20051;-68
2023/08/25 01:25:37;;;;;;;1999.90;999.90;;;;;;;19.42;100.00;100889.75;10605933;27;20043;-68
2023/08/25 01:30:39;;;;;;;1999.90;999.90;;;;;;;19.39;100.00;100894.50;10606679;28;20058;-68
2023/08/25 01:36:10;;;;;;;1999.90;999.90;;;;;;;19.34;100.00;100878.16;10606443;28;20047;-69
2023/08/25 01:41:41;;;;;;;1999.90;999.90;;;;;;;19.23;100.00;100880.00;10623760;28;20051;-69
2023/08/25 01:46:48;;;;;;;1999.90;999.90;;;;;;;19.17;100.00;100877.09;10527904;22;20056;-67
2023/08/25 01:51:50;;;;;;;1999.90;999.90;;;;;;;19.06;100.00;100870.97;10455821;28;20478;-66
2023/08/25 01:56:52;;;;;;;1999.90;999.90;;;;;;;19.04;100.00;100872.06;10456263;28;20049;-66
2023/08/25 02:01:55;;;;;;;1999.90;999.90;;;;;;;19.06;100.00;100873.63;10455635;28;20412;-67
2023/08/25 02:06:57;;;;;;;1999.90;999.90;;;;;;;19.10;100.00;100871.50;10455460;28;20383;-67
2023/08/25 02:12:00;;;;;;;1999.90;999.90;;;;;;;19.17;100.00;100879.75;10455319;28;20073;-66
2023/08/25 02:17:02;;;;;;;1999.90;999.90;;;;;;;19.20;100.00;100879.44;10455841;28;20063;-67
2023/08/25 02:22:04;;;;;;;1999.90;999.90;;;;;;;19.36;100.00;100869.06;10455190;28;20481;-67
2023/08/25 02:27:07;;;;;;;1999.90;999.90;;;;;;;19.34;100.00;100863.06;10437986;28;20053;-66
2023/08/25 02:32:09;;;;;;;1999.90;999.90;;;;;;;19.44;100.00;100853.25;10454909;28;20404;-67
2023/08/25 02:37:11;;;;;;;1999.90;999.90;;;;;;;19.44;100.00;100841.81;10440771;28;20409;-66
2023/08/25 02:42:13;;;;;;;1999.90;999.90;;;;;;;19.43;100.00;100842.78;10462969;28;20124;-66
2023/08/25 02:47:16;;;;;;;1999.90;999.90;;;;;;;19.57;100.00;100836.16;10462192;28;20061;-66
2023/08/25 02:52:18;;;;;;;1999.90;999.90;;;;;;;19.46;100.00;100832.72;10462514;28;20049;-67
2023/08/25 02:57:20;;;;;;;1999.90;999.90;;;;;;;19.43;100.00;100833.03;10461750;28;20053;-66
2023/08/25 03:02:23;;;;;;;1999.90;999.90;;;;;;;19.51;100.00;100824.31;10461494;28;20482;-66
2023/08/25 03:07:25;;;;;;;1999.90;999.90;;;;;;;19.59;100.00;100808.50;10443647;28;20413;-66
2023/08/25 03:12:28;;;;;;;1999.90;999.90;;;;;;;19.53;100.00;100801.09;10461723;28;20127;-67
2023/08/25 03:17:30;;;;;;;1999.90;999.90;;;;;;;19.49;100.00;100803.22;10443328;28;20053;-67
2023/08/25 03:22:33;;;;;;;1999.90;999.90;;;;;;;19.53;100.00;100792.31;10461388;28;20072;-67
2023/08/25 03:27:36;;;;;;;1999.90;999.90;;;;;;;19.62;100.00;100776.34;10460542;28;20053;-67
2023/08/25 03:32:39;;;;;;;1999.90;999.90;;;;;;;19.65;100.00;100772.53;10460259;28;20460;-67
2023/08/25 03:37:41;;;;;;;1999.90;999.90;;;;;;;19.74;100.00;100763.69;10460872;28;20049;-67
2023/08/25 03:42:43;;;;;;;1999.90;999.90;;;;;;;19.51;100.00;100765.91;10426479;28;20049;-67
2023/08/25 03:47:46;;;;;;;1999.90;999.90;;;;;;;19.54;100.00;100765.59;10459628;28;20520;-67
2023/08/25 03:52:49;;;;;;;1999.90;999.90;;;;;;;19.48;100.00;100761.72;10460145;28;20056;-67
2023/08/25 03:57:52;;;;;;;1999.90;999.90;;;;;;;19.64;100.00;100755.78;10460051;28;20557;-67
2023/08/25 04:02:55;;;;;;;1999.90;999.90;;;;;;;19.62;100.00;100752.44;10425823;28;20076;-68
2023/08/25 04:07:57;;;;;;;1999.90;999.90;;;;;;;19.78;100.00;100756.28;10458969;28;20463;-68
2023/08/25 04:12:59;;;;;;;1999.90;999.90;;;;;;;19.70;100.00;100750.84;10459291;28;20048;-67
2023/08/25 04:18:02;;;;;;;1999.90;999.90;;;;;;;19.63;100.00;100742.63;10441524;28;20068;-67
2023/08/25 04:23:04;;;;;;;1999.90;999.90;;;;;;;19.60;100.00;100748.25;10458946;28;20048;-68
2023/08/25 04:28:07;;;;;;;1999.90;999.90;;;;;;;19.49;100.00;100746.63;10458810;28;20132;-67
2023/08/25 04:33:11;;;;;;;1999.90;999.90;;;;;;;19.65;100.00;100749.50;10441039;28;20044;-67
2023/08/25 04:38:13;;;;;;;1999.90;999.90;;;;;;;19.59;100.00;100741.28;10458404;28;20102;-67
2023/08/25 04:43:15;;;;;;;1999.90;999.90;;;;;;;19.71;100.00;100745.38;10458242;28;20041;-67
2023/08/25 04:48:18;;;;;;;1999.90;999.90;;;;;;;19.75;100.00;100743.28;10457414;28;20064;-67
2023/08/25 04:53:20;;;;;;;1999.90;999.90;;;;;;;19.69;100.00;100734.09;10457218;28;20379;-67
2023/08/25 04:58:22;;;;;;;1999.90;999.90;;;;;;;19.83;100.00;100730.94;10456657;28;20056;-68
2023/08/25 05:03:26;;;;;;;1999.90;999.90;;;;;;;19.76;100.00;100737.84;10439377;28;20044;-68
2023/08/25 05:08:28;;;;;;;1999.90;999.90;;;;;;;19.62;100.00;100747.13;10456673;28;20406;-67
2023/08/25 05:13:31;;;;;;;1999.90;999.90;;;;;;;19.70;100.00;100746.34;10457184;28;20051;-67
2023/08/25 05:18:33;;;;;;;1999.90;999.90;;;;;;;19.80;100.00;100730.41;10456584;28;20053;-68
2023/08/25 05:23:36;;;;;;;1999.90;999.90;;;;;;;19.86;100.00;100722.66;10456994;28;20049;-67
2023/08/25 05:28:39;;;;;;;1999.90;999.90;;;;;;;19.93;100.00;100730.88;10456209;28;20401;-68
2023/08/25 05:33:41;;;;;;;1999.90;999.90;;;;;;;19.74;100.00;100734.47;10456793;28;20045;-68
2023/08/25 05:38:43;;;;;;;1999.90;999.90;;;;;;;19.90;100.00;100719.72;10439005;28;20095;-67
2023/08/25 05:43:46;;;;;;;1999.90;999.90;;;;;;;19.98;100.00;100710.00;10456602;28;20056;-68
2023/08/25 05:48:48;;;;;;;1999.90;999.90;;;;;;;20.04;100.00;100705.91;10455661;28;20053;-68
2023/08/25 05:53:51;;;;;;;1999.90;999.90;;;;;;;20.09;100.00;100708.94;10456305;28;20052;-68
2023/08/25 05:58:53;;;;;;;1999.90;999.90;;;;;;;20.10;100.00;100707.94;10438005;28;20075;-67
2023/08/25 06:03:56;;;;;;;1999.90;999.90;;;;;;;20.28;100.00;100710.59;10456163;28;20049;-68
2023/08/25 06:08:58;;;;;;;1999.90;999.90;;;;;;;20.49;100.00;100696.94;10455394;28;20057;-68
2023/08/25 06:14:01;;;;;;;1999.90;999.90;;;;;;;20.62;100.00;100703.72;10462661;28;20044;-68
2023/08/25 06:19:03;;;;;;;1999.90;999.90;;;;;;;20.87;100.00;100696.75;10429813;28;20076;-68
2023/08/25 06:24:06;;;;;;;1999.90;999.90;;;;;;;20.88;100.00;100690.41;10446198;28;20044;-68
2023/08/25 06:29:11;;;;;;;1999.90;999.90;;;;;;;20.75;100.00;100688.19;10430191;28;20079;-67
2023/08/25 06:34:14;;;;;;;1999.90;999.90;;;;;;;20.36;100.00;100721.31;10462567;28;20449;-68
2023/08/25 06:39:16;;;;;;;1999.90;999.90;;;;;;;19.97;100.00;100748.19;10462385;28;20055;-68
2023/08/25 06:44:19;;;;;;;1999.90;999.90;;;;;;;20.18;100.00;100742.56;10428750;28;20055;-67
2023/08/25 06:49:21;;;;;;;1999.90;999.90;;;;;;;20.15;100.00;100734.06;10444262;28;20413;-68
2023/08/25 06:54:26;;;;;;;1999.90;999.90;;;;;;;20.00;100.00;100731.09;10461766;28;20383;-68
2023/08/25 06:59:29;;;;;;;1999.90;999.90;;;;;;;19.84;100.00;100727.31;10462274;28;20052;-68
2023/08/25 07:04:32;;;;;;;1999.90;999.90;;;;;;;19.91;100.00;100721.41;10444466;28;20049;-68
2023/08/25 07:09:35;;;;;;;1999.90;999.90;;;;;;;19.61;100.00;100712.75;10461857;28;20132;-70
2023/08/25 07:14:37;;;;;;;1999.90;999.90;;;;;;;19.85;100.00;100698.91;10444089;28;20053;-68
2023/08/25 07:19:39;;;;;;;1999.90;999.90;;;;;;;19.77;100.00;100705.00;10460788;28;20478;-69
2023/08/25 07:24:42;;;;;;;1999.90;999.90;;;;;;;19.82;100.00;100685.91;10441959;28;20075;-69
2023/08/25 07:29:44;;;;;;;1999.90;999.90;;;;;;;19.84;100.00;100673.34;10460450;28;20053;-69
2023/08/25 07:34:46;;;;;;;1999.90;999.90;;;;;;;19.89;100.00;100664.91;10460496;28;20071;-69
2023/08/25 07:39:55;;;;;;;1999.90;999.90;;;;;;;19.78;100.00;100689.88;10442467;28;20405;-68
2023/08/25 07:44:58;;;;;;;1999.90;999.90;;;;;;;19.83;100.00;100700.88;10460380;28;20128;-69
2023/08/25 07:50:02;;;;;;;1999.90;999.90;;;;;;;20.07;100.00;100689.66;10459704;28;20401;-68
2023/08/25 07:55:05;;;;;;;1999.90;999.90;;;;;;;20.15;100.00;100651.69;10410539;28;20049;-68
2023/08/25 08:00:12;;;;;;;1999.90;999.90;;;;;;;20.41;100.00;100673.00;10459508;28;20129;-68
2023/08/25 08:05:16;;;;;;;1999.90;999.90;;;;;;;20.15;100.00;100681.75;10442693;28;20049;-69
2023/08/25 08:10:19;;;;;;;1999.90;999.90;;;;;;;19.82;100.00;100686.78;10426061;28;20103;-68
2023/08/25 08:15:21;;;;;;;1999.90;999.90;;;;;;;19.82;100.00;100728.41;10459321;28;20055;-66
2023/08/25 08:20:24;;;;;;;1999.90;999.90;;;;;;;19.68;100.00;100745.69;10459107;28;20049;-66
2023/08/25 08:25:29;;;;;;;1999.90;999.90;;;;;;;19.32;100.00;100772.13;10459098;28;20052;-65
2023/08/25 08:30:31;;;;;;;1999.90;999.90;;;;;;;19.43;100.00;100779.06;10458040;28;20049;-65
2023/08/25 08:35:33;;;;;;;1999.90;999.90;;;;;;;19.59;100.00;100773.13;10457193;28;20055;-65
2023/08/25 08:40:36;;;;;;;1999.90;999.90;;;;;;;19.44;100.00;100757.69;10440637;28;20051;-66
2023/08/25 08:45:39;;;;;;;1999.90;999.90;;;;;;;19.37;100.00;100769.88;10457886;28;20059;-66
2023/08/25 08:50:44;;;;;;;1999.90;999.90;;;;;;;19.43;100.00;100764.00;10440290;28;20045;-66
2023/08/25 08:55:47;;;;;;;1999.90;999.90;;;;;;;19.19;100.00;100756.53;10440454;28;20052;-66
2023/08/25 09:00:50;;;;;;;1999.90;999.90;;;;;;;19.24;100.00;100756.09;10439707;28;20080;-66
2023/08/25 09:05:57;;;;;;;1999.90;999.90;;;;;;;19.28;100.00;100715.00;10440057;28;20049;-66
2023/08/25 09:11:04;;;;;;;1999.90;999.90;;;;;;;19.51;100.00;100715.44;10440384;28;20048;-67
2023/08/25 09:16:14;;;;;;;1999.90;999.90;;;;;;;19.29;100.00;100746.72;10439086;28;20075;-67
2023/08/25 09:21:18;;;;;;;1999.90;999.90;;;;;;;19.24;100.00;100742.81;10440031;28;20045;-67
2023/08/25 09:26:21;;;;;;;1999.90;999.90;;;;;;;19.26;100.00;100747.00;10438758;28;20131;-67
2023/08/25 09:31:28;;;;;;;1999.90;999.90;;;;;;;19.35;100.00;100757.72;10439122;28;20051;-67
2023/08/25 09:36:31;;;;;;;1999.90;999.90;;;;;;;19.54;100.00;100741.72;10456155;28;20163;-67
2023/08/25 09:41:33;;;;;;;1999.90;999.90;;;;;;;19.47;100.00;100733.50;10456686;28;20072;-66
2023/08/25 09:46:36;;;;;;;1999.90;999.90;;;;;;;19.38;100.00;100734.38;10460920;28;20053;-66
2023/08/25 09:51:41;;;;;;;1999.90;999.90;;;;;;;19.88;100.00;100727.84;10464361;28;20053;-66
2023/08/25 09:56:45;;;;;;;1999.90;999.90;;;;;;;19.55;100.00;100724.81;10464992;28;20053;-66
2023/08/25 10:01:47;;;;;;;1999.90;999.90;;;;;;;19.87;100.00;100689.00;10447094;28;20127;-66
2023/08/25 10:06:50;;;;;;;1999.90;999.90;;;;;;;19.79;100.00;100691.56;10446171;28;20048;-67
2023/08/25 10:11:55;;;;;;;1999.90;999.90;;;;;;;20.21;100.00;100702.41;10445892;28;20051;-67
2023/08/25 10:17:01;;;;;;;1999.90;999.90;;;;;;;20.74;100.00;100703.31;10446462;28;20124;-67
2023/08/25 10:22:04;;;;;;;1999.90;999.90;;;;;;;21.02;100.00;100713.78;10463873;28;20084;-67
2023/08/25 10:27:07;;;;;;;1999.90;999.90;;;;;;;21.06;100.00;100708.97;10463679;28;20053;-67
2023/08/25 10:32:10;;;;;;;1999.90;999.90;;;;;;;21.03;100.00;100702.16;10463656;28;20079;-67
2023/08/25 10:37:25;;;;;;;1999.90;999.90;;;;;;;21.34;100.00;100723.75;10462678;28;20049;-67
2023/08/25 10:42:32;;;;;;;1999.90;999.90;;;;;;;21.11;100.00;100715.47;10445453;28;20045;-67
2023/08/25 10:47:42;;;;;;;1999.90;999.90;;;;;;;21.53;100.00;100713.84;10444524;28;20386;-67
2023/08/25 10:52:47;;;;;;;1999.90;999.90;;;;;;;21.69;100.00;100718.41;10445046;28;20049;-67
2023/08/25 10:57:53;;;;;;;1999.90;999.90;;;;;;;21.22;100.00;100721.56;10461152;28;20774;-67
2023/08/25 11:02:57;;;;;;;1999.90;999.90;;;;;;;21.05;100.00;100723.31;10444723;28;20048;-67
2023/08/25 11:08:24;;;;;;;1999.90;999.90;;;;;;;20.67;100.00;100736.03;10444544;28;20049;-67
2023/08/25 11:13:27;;;;;;;1999.90;999.90;;;;;;;20.43;100.00;100737.47;10443947;28;20474;-66
2023/08/25 11:18:29;;;;;;;1999.90;999.90;;;;;;;20.33;100.00;100734.91;10444090;28;20103;-67
2023/08/25 11:23:36;;;;;;;1999.90;999.90;;;;;;;20.40;100.00;100737.78;10461575;28;20041;-67
2023/08/25 11:28:39;;;;;;;1999.90;999.90;;;;;;;20.05;100.00;100739.47;10426876;28;20453;-67
2023/08/25 11:33:41;;;;;;;1999.90;999.90;;;;;;;19.97;100.00;100737.56;10461086;28;20127;-67
2023/08/25 11:38:48;;;;;;;1999.90;999.90;;;;;;;20.10;100.00;100729.22;10443274;28;20057;-67
2023/08/25 11:43:51;;;;;;;1999.90;999.90;;;;;;;20.33;100.00;100718.13;10443166;28;20124;-67
2023/08/25 11:48:55;;;;;;;1999.90;999.90;;;;;;;20.31;100.00;100701.47;10459702;28;20498;-67
2023/08/25 11:53:57;;;;;;;1999.90;999.90;;;;;;;20.39;100.00;100709.50;10442830;28;20072;-67
2023/08/25 11:59:00;;;;;;;1999.90;999.90;;;;;;;20.98;100.00;100691.16;10460094;28;20049;-67
2023/08/25 12:04:22;;;;;;;1999.90;999.90;;;;;;;20.99;100.00;100695.47;10459957;28;20045;-67
2023/08/25 12:09:25;;;;;;;1999.90;999.90;;;;;;;21.02;100.00;100707.66;10458674;28;20053;-67
2023/08/25 12:14:30;;;;;;;1999.90;999.90;;;;;;;21.02;100.00;100707.66;10459467;28;20045;-67
2023/08/25 12:19:33;;;;;;;1999.90;999.90;;;;;;;21.16;100.00;100723.00;10459300;28;20128;-67
2023/08/25 12:24:36;;;;;;;1999.90;999.90;;;;;;;21.15;100.00;100711.53;10458631;28;20128;-67
2023/08/25 12:29:38;;;;;;;1999.90;999.90;;;;;;;20.96;100.00;100711.75;10458882;28;20057;-67
2023/08/25 12:34:41;;;;;;;1999.90;999.90;;;;;;;21.00;100.00;100706.94;10431153;28;20041;-67
2023/08/25 12:39:47;;;;;;;1999.90;999.90;;;;;;;20.84;100.00;100702.38;10410853;28;20078;-67
2023/08/25 12:44:53;;;;;;;1999.90;999.90;;;;;;;20.90;100.00;100672.50;10419287;28;20536;-67
2023/08/25 12:49:55;;;;;;;1999.90;999.90;;;;;;;21.05;100.00;100649.59;10416278;28;20085;-67
2023/08/25 12:54:57;;;;;;;1999.90;999.90;;;;;;;21.58;100.00;100636.13;10398556;28;20072;-67
2023/08/25 13:00:20;;;;;;;1999.90;999.90;;;;;;;22.04;100.00;100631.16;10416703;28;20054;-67
2023/08/25 13:05:23;;;;;;;1999.90;999.90;;;;;;;21.52;100.00;100666.94;10399025;28;20045;-66
2023/08/25 13:10:27;;;;;;;1999.90;999.90;;;;;;;21.38;100.00;100662.19;10415009;28;20050;-67
2023/08/25 13:15:29;;;;;;;1999.90;999.90;;;;;;;21.36;100.00;100670.34;10441848;28;20418;-67
2023/08/25 13:20:35;;;;;;;1999.90;999.90;;;;;;;21.57;100.00;100659.28;10456887;28;20053;-67
2023/08/25 13:25:37;;;;;;;1999.90;999.90;;;;;;;21.41;100.00;100654.69;10456443;28;20045;-67
2023/08/25 13:30:40;;;;;;;1999.90;999.90;;;;;;;21.40;100.00;100650.38;10439306;28;20103;-67
2023/08/25 13:35:42;;;;;;;1999.90;999.90;;;;;;;21.77;100.00;100641.16;10456848;28;20059;-67
2023/08/25 13:40:45;;;;;;;1999.90;999.90;;;;;;;21.71;100.00;100650.63;10456721;28;20114;-67
2023/08/25 13:45:49;;;;;;;1999.90;999.90;;;;;;;22.13;100.00;100662.16;10455787;28;20061;-67
2023/08/25 13:50:51;;;;;;;1999.90;999.90;;;;;;;21.83;100.00;100659.13;10456650;28;20049;-67
2023/08/25 13:55:54;;;;;;;1999.90;999.90;;;;;;;22.19;100.00;100644.66;10438118;28;20448;-67
2023/08/25 14:00:56;;;;;;;1999.90;999.90;;;;;;;23.09;100.00;100628.47;10462986;22;20053;-67
2023/08/25 14:05:59;;;;;;;1999.90;999.90;;;;;;;23.60;100.00;100611.97;10456316;28;20128;-67
2023/08/25 14:11:10;;;;;;;1999.90;999.90;;;;;;;23.09;100.00;100616.97;10456112;28;20132;-67
2023/08/25 14:16:12;;;;;;;1999.90;999.90;;;;;;;23.32;100.00;100612.50;10455463;28;20044;-67
2023/08/25 14:21:15;;;;;;;1999.90;999.90;;;;;;;23.95;100.00;100617.75;10455972;28;20080;-67
2023/08/25 14:26:17;;;;;;;1999.90;999.90;;;;;;;23.58;100.00;100627.34;10455874;28;20049;-67
2023/08/25 14:31:19;;;;;;;1999.90;999.90;;;;;;;23.42;100.00;100620.28;10438905;28;20049;-67
2023/08/25 14:36:22;;;;;;;1999.90;999.90;;;;;;;23.70;100.00;100622.41;10445790;28;20053;-67
2023/08/25 14:41:26;;;;;;;1999.90;999.90;;;;;;;23.44;100.00;100626.28;10463181;28;20049;-67
2023/08/25 14:46:40;;;;;;;1999.90;999.90;;;;;;;22.93;100.00;100634.69;10462345;28;20127;-67
2023/08/25 14:51:42;;;;;;;1999.90;999.90;;;;;;;22.87;100.00;100645.22;10445548;28;20056;-67
2023/08/25 14:56:45;;;;;;;1999.90;999.90;;;;;;;23.08;100.00;100644.66;10462635;28;20063;-67
2023/08/25 15:01:48;;;;;;;1999.90;999.90;;;;;;;22.45;100.00;100652.50;10461714;28;20049;-67
2023/08/25 15:06:50;;;;;;;1999.90;999.90;;;;;;;22.76;100.00;100651.75;10444870;28;20052;-67
2023/08/25 15:11:53;;;;;;;1999.90;999.90;;;;;;;22.68;100.00;100646.44;10444291;28;20123;-67
2023/08/25 15:16:55;;;;;;;1999.90;999.90;;;;;;;22.74;100.00;100656.44;10461161;28;20501;-67
2023/08/25 15:21:57;;;;;;;1999.90;999.90;;;;;;;22.73;100.00;100646.75;10461626;28;20119;-67
2023/08/25 15:27:00;;;;;;;1999.90;999.90;;;;;;;23.82;100.00;100628.22;10461405;28;20052;-67
2023/08/25 15:32:02;;;;;;;1999.90;999.90;;;;;;;25.11;100.00;100634.25;10460550;28;20502;-68
2023/08/25 15:37:05;;;;;;;1999.90;999.90;;;;;;;24.80;100.00;100629.13;10460396;28;20053;-68
2023/08/25 15:42:07;;;;;;;1999.90;999.90;;;;;;;24.11;100.00;100628.31;10460626;28;20048;-68
2023/08/25 15:47:10;;;;;;;1999.90;999.90;;;;;;;23.36;100.00;100621.81;10460014;28;20118;-68
2023/08/25 15:52:12;;;;;;;1999.90;999.90;;;;;;;23.21;100.00;100601.38;10459755;28;20085;-68
2023/08/25 15:57:14;;;;;;;1999.90;999.90;;;;;;;22.77;100.00;100608.88;10460316;28;20059;-67
2023/08/25 16:02:17;;;;;;;1999.90;999.90;;;;;;;22.71;100.00;100624.75;10459587;28;20060;-67
2023/08/25 16:07:19;;;;;;;1999.90;999.90;;;;;;;22.98;100.00;100618.13;10459202;28;20507;-67
2023/08/25 16:12:21;;;;;;;1999.90;999.90;;;;;;;23.15;100.00;100616.28;10459591;28;20055;-68
2023/08/25 16:17:24;;;;;;;1999.90;999.90;;;;;;;22.70;100.00;100623.09;10459492;28;20124;-68
2023/08/25 16:22:26;;;;;;;1999.90;999.90;;;;;;;22.48;100.00;100619.28;10458541;28;20507;-68
2023/08/25 16:27:29;;;;;;;1999.90;999.90;;;;;;;22.30;100.00;100619.53;10458886;28;20136;-67
2023/08/25 16:32:33;;;;;;;1999.90;999.90;;;;;;;22.21;100.00;100627.50;10440606;28;20049;-67
2023/08/25 16:37:36;;;;;;;1999.90;999.90;;;;;;;22.17;100.00;100618.16;10458653;28;20056;-68
2023/08/25 16:42:38;;;;;;;1999.90;999.90;;;;;;;22.18;100.00;100627.81;10440805;28;20049;-67
2023/08/25 16:47:40;;;;;;;1999.90;999.90;;;;;;;22.14;100.00;100612.31;10458292;28;20048;-68
2023/08/25 16:52:43;;;;;;;1999.90;999.90;;;;;;;21.81;100.00;100625.69;10458004;28;20077;-68
2023/08/25 16:57:46;;;;;;;1999.90;999.90;;;;;;;21.52;100.00;100632.31;10439214;28;20510;-68
2023/08/25 17:02:49;;;;;;;1999.90;999.90;;;;;;;21.37;100.00;100637.41;10457117;28;20063;-67
2023/08/25 17:07:52;;;;;;;1999.90;999.90;;;;;;;21.59;100.00;100641.31;10456898;28;20052;-68
2023/08/25 17:12:54;;;;;;;1999.90;999.90;;;;;;;21.34;100.00;100637.72;10456645;28;20421;-68
2023/08/25 17:17:57;;;;;;;1999.90;999.90;;;;;;;20.69;100.00;100667.53;10439669;28;20183;-68
2023/08/25 17:23:00;;;;;;;1999.90;999.90;;;;;;;20.83;100.00;100661.66;10457128;28;20048;-69
2023/08/25 17:28:02;;;;;;;1999.90;999.90;;;;;;;20.74;100.00;100659.91;10457007;28;20132;-67
2023/08/25 17:33:05;;;;;;;1999.90;999.90;;;;;;;20.60;100.00;100674.59;10438409;28;20383;-67
2023/08/25 17:38:08;;;;;;;1999.90;999.90;;;;;;;20.60;100.00;100669.28;10456725;28;20045;-66
2023/08/25 17:43:10;;;;;;;1999.90;999.90;;;;;;;20.67;100.00;100662.38;10439057;28;20124;-66
2023/08/25 17:48:13;;;;;;;1999.90;999.90;;;;;;;20.65;100.00;100668.84;10456638;28;20051;-67
2023/08/25 17:53:15;;;;;;;1999.90;999.90;;;;;;;20.37;100.00;100680.41;10455845;28;20052;-67
2023/08/25 17:58:18;;;;;;;1999.90;999.90;;;;;;;20.50;100.00;100688.00;10455813;28;20535;-67
2023/08/25 18:03:20;;;;;;;1999.90;999.90;;;;;;;20.42;100.00;100694.09;10438181;28;20057;-67
2023/08/25 18:08:23;;;;;;;1999.90;999.90;;;;;;;20.59;100.00;100695.06;10444824;28;20056;-67
2023/08/25 18:13:26;;;;;;;1999.90;999.90;;;;;;;20.49;100.00;100693.47;10446611;28;20052;-67
2023/08/25 18:18:28;;;;;;;1999.90;999.90;;;;;;;20.33;100.00;100715.47;10446534;28;20132;-68
2023/08/25 18:23:30;;;;;;;1999.90;999.90;;;;;;;20.26;100.00;100715.25;10463964;28;20041;-68
2023/08/25 18:28:33;;;;;;;1999.90;999.90;;;;;;;20.38;100.00;100715.84;10463685;28;20052;-68
2023/08/25 18:33:39;;;;;;;1999.90;999.90;;;;;;;20.27;100.00;100732.03;10445119;28;20048;-68
2023/08/25 18:38:42;;;;;;;1999.90;999.90;;;;;;;20.27;100.00;100732.84;10446104;28;20049;-68
2023/08/25 18:43:44;;;;;;;1999.90;999.90;;;;;;;20.23;100.00;100734.16;10462588;28;20401;-68
2023/08/25 18:48:47;;;;;;;1999.90;999.90;;;;;;;20.10;100.00;100733.69;10462980;28;20075;-68
2023/08/25 18:53:49;;;;;;;1999.90;999.90;;;;;;;19.97;100.00;100742.03;10462101;28;20049;-68
2023/08/25 18:58:52;;;;;;;1999.90;999.90;;;;;;;19.99;100.00;100729.44;10462574;28;20057;-68
2023/08/25 19:03:54;;;;;;;1999.90;999.90;;;;;;;19.78;100.00;100730.53;10444293;28;20056;-68
2023/08/25 19:08:57;;;;;;;1999.90;999.90;;;;;;;19.67;100.00;100757.31;10462194;28;20049;-68
2023/08/25 19:13:59;;;;;;;1999.90;999.90;;;;;;;19.85;100.00;100752.03;10461912;28;20044;-68
2023/08/25 19:19:02;;;;;;;1999.90;999.90;;;;;;;19.68;100.00;100757.13;10442974;28;20049;-68
2023/08/25 19:24:04;;;;;;;1999.90;999.90;;;;;;;19.60;100.00;100775.66;10460991;28;20565;-68
2023/08/25 19:29:08;;;;;;;1999.90;999.90;;;;;;;19.64;100.00;100761.09;10460712;28;20405;-67
2023/08/25 19:34:10;;;;;;;1999.90;999.90;;;;;;;19.27;100.00;100791.16;10461111;28;20048;-67
2023/08/25 19:39:13;;;;;;;1999.90;999.90;;;;;;;19.52;100.00;100778.19;10461056;28;20052;-66
2023/08/25 19:44:15;;;;;;;1999.90;999.90;;;;;;;19.08;100.00;100776.13;10460889;28;20049;-66
2023/08/25 19:49:18;;;;;;;1999.90;999.90;;;;;;;18.97;100.00;100800.16;10460034;28;20132;-66
2023/08/25 19:54:20;;;;;;;1999.90;999.90;;;;;;;18.98;100.00;100820.41;10459770;28;20401;-67
2023/08/25 19:59:22;;;;;;;1999.90;999.90;;;;;;;19.32;100.00;100793.38;10459668;28;20074;-67
2023/08/25 20:04:25;;;;;;;1999.90;999.90;;;;;;;18.66;100.00;100812.72;10459375;28;20063;-67
2023/08/25 20:09:27;;;;;;;1999.90;999.90;;;;;;;18.70;100.00;100816.78;10459791;28;20045;-67
2023/08/25 20:14:30;;;;;;;1999.90;999.90;;;;;;;18.83;100.00;100801.44;10459559;28;20051;-67
2023/08/25 20:19:32;;;;;;;1999.90;999.90;;;;;;;18.76;100.00;100800.28;10458907;28;20087;-67
2023/08/25 20:24:34;;;;;;;1999.90;999.90;;;;;;;18.40;100.00;100796.56;10459235;28;20049;-68
2023/08/25 20:29:37;;;;;;;1999.90;999.90;;;;;;;18.66;100.00;100800.31;10457530;28;20409;-67
2023/08/25 20:34:39;;;;;;;1999.90;999.90;;;;;;;18.63;100.00;100795.28;10458792;28;20077;-68
2023/08/25 20:39:41;;;;;;;1999.90;999.90;;;;;;;18.38;100.00;100797.53;10458038;28;20055;-67
2023/08/25 20:44:44;;;;;;;1999.90;999.90;;;;;;;18.47;100.00;100803.78;10440235;28;20504;-68
2023/08/25 20:49:46;;;;;;;1999.90;999.90;;;;;;;18.38;100.00;100799.34;10440049;28;20056;-68
2023/08/25 20:54:48;;;;;;;1999.90;999.90;;;;;;;18.35;100.00;100807.56;10457400;28;20111;-68
2023/08/25 20:59:51;;;;;;;1999.90;999.90;;;;;;;18.27;100.00;100810.88;10457924;28;20045;-68
2023/08/25 21:04:53;;;;;;;1999.90;999.90;;;;;;;18.42;100.00;100821.09;10439386;28;20049;-67
2023/08/25 21:09:56;;;;;;;1999.90;999.90;;;;;;;18.38;100.00;100821.38;10423632;28;20053;-67
2023/08/25 21:14:58;;;;;;;1999.90;999.90;;;;;;;18.55;100.00;100811.88;10457369;28;20231;-67
2023/08/25 21:20:00;;;;;;;1999.90;999.90;;;;;;;18.43;100.00;100817.50;10456668;28;20077;-68
2023/08/25 21:25:03;;;;;;;1999.90;999.90;;;;;;;18.21;100.00;100832.66;10439545;28;20049;-68
2023/08/25 21:30:06;;;;;;;1999.90;999.90;;;;;;;18.27;100.00;100834.75;10457077;28;20128;-68
2023/08/25 21:35:08;;;;;;;1999.90;999.90;;;;;;;18.26;100.00;100841.03;10439169;28;20045;-68
2023/08/25 21:40:11;;;;;;;1999.90;999.90;;;;;;;18.20;100.00;100847.69;10438266;28;20485;-67
2023/08/25 21:45:13;;;;;;;1999.90;999.90;;;;;;;18.57;100.00;100838.25;10438425;28;20379;-68